KWRI/WRI METAR and TAF weather

Enter ICAO airport designator
Station Type Date Time Source
KWRI METAR 2021/01/20 18:56 UTC NOAA

KWRI 201856Z 32016G22KT 10SM SCT055 04/M09 A2993 RMK AO2A PK WND 34030/35 SLP136 T00411086


Station Type Date Time Source
KWRI Decoded METAR 2021/01/20 18:56 UTC NOAA

Mcguire Air Force Base, NJ, United States (KWRI) 40-01N 074-36W
Jan 20, 2021 - 01:56 PM EST / 2021.01.20 1856 UTC
Wind: from the NW (320 degrees) at 18 MPH (16 KT) gusting to 25 MPH (22 KT):0
Visibility: 10 mile(s):0
Sky conditions: partly cloudy
Temperature: 39.4 F (4.1 C)
Dew Point: 16.5 F (-8.6 C)
Relative Humidity: 39%
Pressure (altimeter): 29.93 in. Hg (1013 hPa)
ob: KWRI 201856Z 32016G22KT 10SM SCT055 04/M09 A2993 RMK AO2A PK WND 34030/35 SLP136 T00411086
cycle: 19

Station Type Date Time Source
KWRI TAF 2021/01/20 18:12 UTC NOAA

TAF KWRI 201800Z 2018/2124 31018G30KT 9999 BKN030 620303 QNH2992INS
TEMPO 2018/2019 31018G35KT
BECMG 2018/2019 33015G25KT 9999 SCT060 QNH2994INS
BECMG 2022/2023 34010G15KT 9999 FEW060 QNH3004INS
BECMG 2101/2102 VRB06KT 9999 FEW250 QNH2991INS
BECMG 2110/2111 20009KT 9999 SCT090 QNH2984INS
BECMG 2113/2114 23012G20KT 9999 BKN080 QNH2965INS
BECMG 2121/2122 26010KT 9999 FEW080 QNH2966INS TX06/2118Z TNM06/2112Z

Example: see airport list